Time;durP1;ratioP1;P1;durP2;ratioP2;P2;SDS_P1;SDS_P2;PMS_P1;PMS_P2;Temp;Humidity;BMP_temperature;BMP_pressure;BME280_temperature;BME280_humidity;BME280_pressure;Samples;Min_cycle;Max_cycle;Signal;HPM_P1;HPM_P2
2022/12/13 00:00:04;;;;;;;29.75;17.20;;;;;;;-4.20;100.00;100396.78;693797;28;1302;-64
2022/12/13 00:00:33;;;;;;;27.10;16.88;;;;;;;-4.25;100.00;100396.53;697238;28;1309;-64
2022/12/13 00:00:53;;;;;;;26.93;16.53;;;;;;;-4.20;100.00;100402.75;697508;28;4526;-63
2022/12/13 00:01:15;;;;;;;28.63;17.60;;;;;;;-4.23;100.00;100397.47;696456;28;1392;-65
2022/12/13 00:01:36;;;;;;;30.40;17.85;;;;;;;-4.20;100.00;100397.63;697070;28;1162;-65
2022/12/13 00:01:56;;;;;;;29.03;17.33;;;;;;;-4.24;100.00;100394.84;697321;28;1261;-64
2022/12/13 00:02:17;;;;;;;28.65;17.20;;;;;;;-4.24;100.00;100395.72;697310;28;2756;-65
2022/12/13 00:02:37;;;;;;;25.90;16.45;;;;;;;-4.18;100.00;100390.03;697853;28;1433;-64
2022/12/13 00:02:57;;;;;;;27.37;17.23;;;;;;;-4.28;100.00;100393.81;697239;28;1175;-64
2022/12/13 00:03:18;;;;;;;28.42;17.63;;;;;;;-4.35;100.00;100386.66;697635;28;1198;-64
2022/12/13 00:03:38;;;;;;;29.37;18.20;;;;;;;-4.31;100.00;100389.44;696761;28;4569;-64
2022/12/13 00:04:02;;;;;;;27.40;17.33;;;;;;;-4.28;100.00;100391.25;698329;28;1376;-64
2022/12/13 00:04:23;;;;;;;29.67;17.00;;;;;;;-4.29;100.00;100382.75;696018;28;2216;-62
2022/12/13 00:04:43;;;;;;;30.73;17.60;;;;;;;-4.30;100.00;100391.19;696012;28;2777;-64
2022/12/13 00:05:05;;;;;;;28.20;17.17;;;;;;;-4.34;100.00;100390.97;698437;28;1352;-66
2022/12/13 00:05:25;;;;;;;27.27;16.65;;;;;;;-4.35;100.00;100391.75;697178;28;1373;-65
2022/12/13 00:05:45;;;;;;;25.57;16.17;;;;;;;-4.37;100.00;100389.13;697705;28;1378;-65
2022/12/13 00:06:08;;;;;;;27.43;16.30;;;;;;;-4.31;100.00;100388.56;697529;28;1131;-64
2022/12/13 00:06:29;;;;;;;28.52;17.40;;;;;;;-4.28;100.00;100388.72;697066;28;1155;-65
2022/12/13 00:06:52;;;;;;;29.35;17.48;;;;;;;-4.20;100.00;100394.22;697203;28;4909;-65
2022/12/13 00:07:13;;;;;;;29.50;17.52;;;;;;;-4.17;100.00;100387.56;697132;28;1511;-63
2022/12/13 00:07:34;;;;;;;29.23;16.92;;;;;;;-4.20;100.00;100386.56;696774;28;2811;-61
2022/12/13 00:07:54;;;;;;;27.92;16.67;;;;;;;-4.23;100.00;100382.16;696878;28;1213;-63
2022/12/13 00:08:15;;;;;;;26.23;16.37;;;;;;;-4.22;100.00;100383.94;697106;28;1266;-64
2022/12/13 00:08:36;;;;;;;27.52;16.90;;;;;;;-4.26;100.00;100387.13;697524;28;2002;-66
2022/12/13 00:08:58;;;;;;;27.70;17.02;;;;;;;-4.24;100.00;100384.66;696819;28;1264;-64
2022/12/13 00:09:18;;;;;;;28.52;17.67;;;;;;;-4.15;100.00;100385.97;697470;28;1150;-64
2022/12/13 00:09:41;;;;;;;27.83;17.33;;;;;;;-4.15;100.00;100388.53;700379;28;4604;-64
2022/12/13 00:10:03;;;;;;;27.23;16.83;;;;;;;-4.09;100.00;100389.66;699979;28;1186;-64
2022/12/13 00:10:23;;;;;;;28.92;16.92;;;;;;;-4.13;100.00;100384.38;698359;28;3209;-65
2022/12/13 00:10:44;;;;;;;26.97;17.00;;;;;;;-4.07;100.00;100386.38;701047;28;1489;-64
2022/12/13 00:11:07;;;;;;;27.30;16.80;;;;;;;-4.05;100.00;100383.91;700357;28;1337;-65
2022/12/13 00:11:27;;;;;;;26.75;16.90;;;;;;;-4.13;100.00;100381.81;700708;28;1271;-64
2022/12/13 00:11:49;;;;;;;27.40;16.57;;;;;;;-4.23;100.00;100381.31;698263;28;1526;-65
2022/12/13 00:12:09;;;;;;;27.60;16.65;;;;;;;-4.32;100.00;100376.59;699261;28;1391;-65
2022/12/13 00:12:30;;;;;;;29.40;17.13;;;;;;;-4.39;100.00;100387.28;697385;28;1280;-65
2022/12/13 00:12:50;;;;;;;29.17;17.67;;;;;;;-4.37;100.00;100388.25;696407;28;4375;-64
2022/12/13 00:13:10;;;;;;;26.90;16.33;;;;;;;-4.33;100.00;100385.94;695428;28;1371;-65
2022/12/13 00:13:32;;;;;;;27.13;17.00;;;;;;;-4.30;100.00;100387.78;694301;28;1364;-65
2022/12/13 00:13:53;;;;;;;26.08;16.85;;;;;;;-4.26;100.00;100387.13;694930;28;1309;-65
2022/12/13 00:14:14;;;;;;;27.00;16.90;;;;;;;-4.27;100.00;100382.81;694285;28;1357;-65
2022/12/13 00:14:35;;;;;;;28.73;17.08;;;;;;;-4.31;100.00;100380.91;695926;28;1343;-64
2022/12/13 00:14:57;;;;;;;29.60;17.17;;;;;;;-4.32;100.00;100386.78;694281;28;1210;-64
2022/12/13 00:15:17;;;;;;;29.77;17.63;;;;;;;-4.29;100.00;100386.97;693504;28;1305;-65
2022/12/13 00:15:37;;;;;;;29.80;17.87;;;;;;;-4.30;100.00;100385.22;694928;28;4330;-65
2022/12/13 00:16:00;;;;;;;31.87;18.70;;;;;;;-4.35;100.00;100379.00;694466;28;1321;-64
2022/12/13 00:16:22;;;;;;;29.48;17.85;;;;;;;-4.30;100.00;100382.66;694137;28;1170;-65
2022/12/13 00:16:47;;;;;;;28.90;17.77;;;;;;;-4.24;100.00;100385.50;694672;28;1226;-65
2022/12/13 00:17:07;;;;;;;29.70;18.00;;;;;;;-4.20;100.00;100387.41;695677;28;1257;-65
2022/12/13 00:17:30;;;;;;;29.27;18.23;;;;;;;-4.24;100.00;100379.53;697331;28;1372;-65
2022/12/13 00:17:51;;;;;;;28.98;18.50;;;;;;;-4.20;100.00;100386.56;695436;28;1456;-65
2022/12/13 00:18:11;;;;;;;28.60;17.93;;;;;;;-4.14;100.00;100391.94;694064;28;2891;-65
2022/12/13 00:18:32;;;;;;;28.88;18.00;;;;;;;-4.12;100.00;100381.03;695485;28;1571;-65
2022/12/13 00:18:56;;;;;;;28.88;18.27;;;;;;;-4.13;100.00;100386.06;693703;28;4939;-63
2022/12/13 00:19:17;;;;;;;29.67;18.25;;;;;;;-4.23;100.00;100378.75;694730;28;1170;-62
2022/12/13 00:19:37;;;;;;;26.95;17.13;;;;;;;-4.29;100.00;100384.44;694726;28;1439;-64
2022/12/13 00:19:58;;;;;;;27.67;17.13;;;;;;;-4.25;100.00;100385.44;696654;28;1294;-64
2022/12/13 00:20:18;;;;;;;29.20;17.57;;;;;;;-4.27;100.00;100385.38;697681;28;4069;-63
2022/12/13 00:20:39;;;;;;;29.00;17.57;;;;;;;-4.26;100.00;100382.03;696933;28;1334;-66
2022/12/13 00:21:04;;;;;;;27.13;17.00;;;;;;;-4.29;100.00;100381.88;696345;28;3248;-65
2022/12/13 00:21:30;;;;;;;27.88;17.10;;;;;;;-4.21;100.00;100382.25;695871;28;1264;-64
2022/12/13 00:21:50;;;;;;;28.33;17.33;;;;;;;-4.25;100.00;100381.22;697245;28;4736;-63
2022/12/13 00:22:10;;;;;;;27.13;17.27;;;;;;;-4.27;100.00;100380.25;696668;28;1478;-65
2022/12/13 00:22:31;;;;;;;30.07;17.63;;;;;;;-4.25;100.00;100378.69;696933;28;1114;-64
2022/12/13 00:22:51;;;;;;;30.13;17.25;;;;;;;-4.19;100.00;100384.06;696976;28;1179;-63
2022/12/13 00:23:12;;;;;;;27.80;17.57;;;;;;;-4.20;100.00;100377.22;697625;28;1074;-65
2022/12/13 00:23:32;;;;;;;28.25;17.63;;;;;;;-4.25;100.00;100385.44;696692;28;2848;-61
2022/12/13 00:23:54;;;;;;;27.97;16.83;;;;;;;-4.23;100.00;100378.75;697660;28;1500;-65
2022/12/13 00:24:14;;;;;;;28.02;16.88;;;;;;;-4.19;100.00;100381.53;697020;28;1640;-65
2022/12/13 00:24:35;;;;;;;29.02;17.15;;;;;;;-4.14;100.00;100381.75;696956;28;1348;-64
2022/12/13 00:24:55;;;;;;;30.20;17.67;;;;;;;-4.09;100.00;100376.88;696794;28;4411;-65
2022/12/13 00:25:18;;;;;;;28.00;17.10;;;;;;;-4.04;100.00;100380.53;696886;28;1309;-65
2022/12/13 00:25:38;;;;;;;28.55;17.55;;;;;;;-4.04;100.00;100380.53;696616;28;1364;-64
2022/12/13 00:26:09;;;;;;;28.57;17.00;;;;;;;-4.03;100.00;100379.72;697925;28;2920;-63
2022/12/13 00:26:31;;;;;;;30.08;17.08;;;;;;;-4.12;100.00;100380.16;696658;28;1110;-64
2022/12/13 00:26:54;;;;;;;29.55;16.90;;;;;;;-4.13;100.00;100374.16;700101;28;1320;-66
2022/12/13 00:27:15;;;;;;;25.98;16.83;;;;;;;-4.03;100.00;100379.72;697293;28;1244;-64
2022/12/13 00:27:35;;;;;;;24.50;16.53;;;;;;;-3.99;100.00;100374.88;697431;28;1261;-64
2022/12/13 00:27:55;;;;;;;27.53;17.17;;;;;;;-4.12;100.00;100377.59;697367;28;4261;-66
2022/12/13 00:28:16;;;;;;;28.30;16.73;;;;;;;-4.13;100.00;100368.19;697812;28;1287;-65
2022/12/13 00:28:37;;;;;;;28.70;16.88;;;;;;;-4.16;100.00;100376.56;697345;28;1994;-64
2022/12/13 00:28:59;;;;;;;28.38;17.02;;;;;;;-4.14;100.00;100374.97;695014;28;2899;-64
2022/12/13 00:29:20;;;;;;;28.42;17.00;;;;;;;-4.09;100.00;100380.31;696169;28;1151;-65
2022/12/13 00:29:40;;;;;;;27.63;17.37;;;;;;;-4.15;100.00;100373.22;696247;28;1364;-66
2022/12/13 00:30:01;;;;;;;29.05;17.08;;;;;;;-4.28;100.00;100373.41;698181;28;1426;-65
2022/12/13 00:30:21;;;;;;;28.27;16.43;;;;;;;-4.31;100.00;100368.16;699255;28;1253;-62
2022/12/13 00:30:42;;;;;;;28.92;16.95;;;;;;;-4.27;100.00;100377.72;698424;28;4431;-64
2022/12/13 00:31:02;;;;;;;27.07;16.47;;;;;;;-4.17;100.00;100373.94;699892;28;1379;-61
2022/12/13 00:31:24;;;;;;;26.55;16.45;;;;;;;-4.13;100.00;100379.25;699817;28;2856;-64
2022/12/13 00:31:45;;;;;;;27.90;16.95;;;;;;;-4.18;100.00;100375.63;698300;28;1252;-66
2022/12/13 00:32:05;;;;;;;28.30;16.97;;;;;;;-4.25;100.00;100377.78;695608;28;1368;-65
2022/12/13 00:32:25;;;;;;;28.05;17.27;;;;;;;-4.33;100.00;100373.19;698386;28;1221;-65
2022/12/13 00:32:45;;;;;;;27.97;16.60;;;;;;;-4.37;100.00;100378.06;697047;28;1238;-65
2022/12/13 00:33:06;;;;;;;30.95;17.05;;;;;;;-4.33;100.00;100375.72;697803;28;1324;-65
2022/12/13 00:33:27;;;;;;;29.33;16.90;;;;;;;-4.24;100.00;100374.44;694945;28;1167;-66
2022/12/13 00:33:48;;;;;;;28.70;16.52;;;;;;;-4.26;100.00;100374.38;694807;28;4357;-66
2022/12/13 00:34:09;;;;;;;29.90;16.83;;;;;;;-4.31;100.00;100375.81;694525;28;2822;-65
2022/12/13 00:34:29;;;;;;;28.63;16.77;;;;;;;-4.35;100.00;100379.00;695441;28;1096;-66
2022/12/13 00:34:50;;;;;;;28.20;16.48;;;;;;;-4.29;100.00;100376.78;695129;28;1286;-65
2022/12/13 00:35:10;;;;;;;27.33;16.93;;;;;;;-4.28;100.00;100373.41;693917;28;1143;-64
2022/12/13 00:35:31;;;;;;;29.58;17.88;;;;;;;-4.30;100.00;100378.44;697090;28;1472;-63
2022/12/13 00:35:51;;;;;;;29.27;17.50;;;;;;;-4.30;100.00;100373.31;697325;28;1505;-65
2022/12/13 00:36:12;;;;;;;29.65;17.70;;;;;;;-4.28;100.00;100379.41;696800;28;1531;-65
2022/12/13 00:36:33;;;;;;;29.45;17.05;;;;;;;-4.18;100.00;100372.19;694264;28;1523;-65
2022/12/13 00:36:54;;;;;;;27.77;16.52;;;;;;;-4.14;100.00;100379.19;692142;28;4335;-65
2022/12/13 00:37:14;;;;;;;27.90;16.58;;;;;;;-4.18;100.00;100375.63;694503;28;2720;-65
2022/12/13 00:37:34;;;;;;;29.20;17.10;;;;;;;-4.24;100.00;100372.75;695048;28;1135;-63
2022/12/13 00:37:55;;;;;;;30.25;17.55;;;;;;;-4.25;100.00;100378.69;694742;28;1294;-64
2022/12/13 00:38:15;;;;;;;29.83;17.37;;;;;;;-4.25;100.00;100378.69;694566;28;1242;-65
2022/12/13 00:38:37;;;;;;;26.63;16.58;;;;;;;-4.23;100.00;100371.97;699033;28;1132;-62
2022/12/13 00:39:00;;;;;;;27.02;16.02;;;;;;;-4.32;100.00;100371.50;699875;28;4991;-65
2022/12/13 00:39:21;;;;;;;30.10;16.70;;;;;;;-4.37;100.00;100378.91;697052;28;1022;-64
2022/12/13 00:39:42;;;;;;;29.73;16.77;;;;;;;-4.37;100.00;100378.91;695958;28;4301;-64
2022/12/13 00:40:03;;;;;;;27.92;16.20;;;;;;;-4.33;100.00;100380.84;696708;28;1280;-64
2022/12/13 00:40:23;;;;;;;27.10;15.70;;;;;;;-4.32;100.00;100376.59;699928;28;1261;-66
2022/12/13 00:40:44;;;;;;;27.60;15.93;;;;;;;-4.30;100.00;100377.56;699121;28;1241;-64
2022/12/13 00:41:12;;;;;;;27.67;16.70;;;;;;;-4.29;100.00;100372.53;699472;28;1049;-62
2022/12/13 00:41:34;;;;;;;28.13;17.35;;;;;;;-4.29;100.00;100371.66;700175;28;1159;-66
2022/12/13 00:41:55;;;;;;;28.10;16.67;;;;;;;-4.37;100.00;100378.06;699831;28;1344;-66
2022/12/13 00:42:16;;;;;;;28.42;16.75;;;;;;;-4.42;100.00;100371.84;696903;28;1193;-65
2022/12/13 00:42:36;;;;;;;27.67;16.80;;;;;;;-4.45;100.00;100375.09;695677;28;2989;-65
2022/12/13 00:42:56;;;;;;;26.60;16.80;;;;;;;-4.44;100.00;100376.88;696223;28;4337;-64
2022/12/13 00:43:17;;;;;;;26.17;16.23;;;;;;;-4.36;100.00;100374.69;697608;28;1233;-65
2022/12/13 00:43:37;;;;;;;26.37;16.03;;;;;;;-4.31;100.00;100376.66;696536;28;1234;-65
2022/12/13 00:43:58;;;;;;;27.70;16.17;;;;;;;-4.35;100.00;100376.44;696839;28;1257;-66
2022/12/13 00:44:19;;;;;;;29.13;16.60;;;;;;;-4.37;100.00;100372.94;699287;28;1218;-65
2022/12/13 00:44:39;;;;;;;27.93;16.43;;;;;;;-4.38;100.00;100377.16;699903;28;1443;-64
2022/12/13 00:44:59;;;;;;;27.10;16.40;;;;;;;-4.41;100.00;100376.16;700630;28;1356;-66
2022/12/13 00:45:20;;;;;;;26.53;16.30;;;;;;;-4.42;100.00;100376.94;698406;28;3211;-64
2022/12/13 00:45:40;;;;;;;25.67;15.90;;;;;;;-4.45;100.00;100375.97;697170;28;4548;-65
2022/12/13 00:46:00;;;;;;;27.13;16.73;;;;;;;-4.45;100.00;100375.09;695122;28;1440;-65
2022/12/13 00:46:21;;;;;;;27.73;16.27;;;;;;;-4.46;100.00;100374.25;694305;28;1277;-66
2022/12/13 00:46:42;;;;;;;29.40;16.30;;;;;;;-4.39;100.00;100380.50;693432;28;1420;-64
2022/12/13 00:47:03;;;;;;;28.50;16.50;;;;;;;-4.33;100.00;100374.84;693346;28;1503;-65
2022/12/13 00:47:23;;;;;;;25.87;15.63;;;;;;;-4.28;100.00;100373.41;695036;28;1225;-64
2022/12/13 00:47:45;;;;;;;27.45;16.20;;;;;;;-4.31;100.00;100370.69;696654;28;2898;-65
2022/12/13 00:48:05;;;;;;;27.20;16.63;;;;;;;-4.36;100.00;100377.22;698797;28;1340;-64
2022/12/13 00:48:26;;;;;;;29.77;17.27;;;;;;;-4.38;100.00;100377.16;695658;28;1981;-65
2022/12/13 00:48:54;;;;;;;29.40;17.10;;;;;;;-4.45;100.00;100378.50;698755;28;4301;-61
2022/12/13 00:49:15;;;;;;;28.52;16.83;;;;;;;-4.48;100.00;100375.81;698843;28;1495;-65
2022/12/13 00:49:35;;;;;;;29.05;17.02;;;;;;;-4.40;100.00;100377.88;696201;28;1538;-66
2022/12/13 00:49:56;;;;;;;27.38;16.38;;;;;;;-4.30;100.00;100369.91;691867;28;1416;-62
2022/12/13 00:50:16;;;;;;;27.80;16.00;;;;;;;-4.23;100.00;100378.75;692261;28;1289;-65
2022/12/13 00:50:37;;;;;;;28.52;17.02;;;;;;;-4.21;100.00;100375.47;691022;28;3069;-62
2022/12/13 00:50:57;;;;;;;28.27;16.80;;;;;;;-4.26;100.00;100376.91;691088;28;1257;-65
2022/12/13 00:51:19;;;;;;;27.38;16.90;;;;;;;-4.31;100.00;100370.69;691492;28;1225;-66
2022/12/13 00:51:41;;;;;;;27.70;16.02;;;;;;;-4.32;100.00;100372.38;691443;28;4594;-66
2022/12/13 00:52:01;;;;;;;29.07;16.43;;;;;;;-4.25;100.00;100373.56;694113;28;1410;-65
2022/12/13 00:52:21;;;;;;;29.42;17.20;;;;;;;-4.22;100.00;100372.81;694501;28;1329;-65
2022/12/13 00:52:42;;;;;;;29.63;17.47;;;;;;;-4.22;100.00;100368.63;695192;28;1309;-65
2022/12/13 00:53:03;;;;;;;28.05;17.10;;;;;;;-4.21;100.00;100375.47;696733;28;2847;-64
2022/12/13 00:53:23;;;;;;;27.08;16.52;;;;;;;-4.24;100.00;100375.31;697452;28;1198;-65
2022/12/13 00:53:43;;;;;;;28.10;16.80;;;;;;;-4.25;100.00;100373.56;697300;28;1533;-65
2022/12/13 00:54:04;;;;;;;28.40;17.10;;;;;;;-4.22;100.00;100377.94;696930;28;1330;-67
2022/12/13 00:54:24;;;;;;;29.80;17.50;;;;;;;-4.29;100.00;100379.31;699798;28;1205;-66
2022/12/13 00:54:45;;;;;;;30.73;17.25;;;;;;;-4.36;100.00;100372.13;698040;28;4527;-66
2022/12/13 00:55:06;;;;;;;28.70;17.27;;;;;;;-4.40;100.00;100377.88;699859;28;1336;-65
2022/12/13 00:55:27;;;;;;;28.98;17.38;;;;;;;-4.39;100.00;100379.63;698037;28;1069;-66
2022/12/13 00:55:47;;;;;;;29.98;17.30;;;;;;;-4.41;100.00;100371.91;697050;28;2772;-65
2022/12/13 00:56:15;;;;;;;28.67;17.48;;;;;;;-4.43;100.00;100375.19;695721;28;1400;-66
2022/12/13 00:56:36;;;;;;;28.80;16.80;;;;;;;-4.47;100.00;100372.47;696590;28;1237;-66
2022/12/13 00:56:57;;;;;;;28.42;16.98;;;;;;;-4.48;100.00;100380.91;697314;28;1205;-66
2022/12/13 00:57:17;;;;;;;28.08;17.20;;;;;;;-4.47;100.00;100372.47;698915;28;1217;-65
2022/12/13 00:57:38;;;;;;;28.47;16.70;;;;;;;-4.43;100.00;100375.19;698399;28;4358;-66
2022/12/13 00:57:58;;;;;;;30.73;17.55;;;;;;;-4.45;100.00;100378.50;699881;28;1404;-65
2022/12/13 00:58:18;;;;;;;30.23;18.07;;;;;;;-4.46;100.00;100378.44;698625;28;3011;-64
2022/12/13 00:58:40;;;;;;;29.27;18.30;;;;;;;-4.38;100.00;100376.28;696539;28;1154;-66
2022/12/13 00:59:00;;;;;;;30.15;18.10;;;;;;;-4.31;100.00;100386.00;696554;28;1454;-66
2022/12/13 00:59:21;;;;;;;30.57;17.97;;;;;;;-4.30;100.00;100380.97;696172;28;1139;-66
2022/12/13 00:59:41;;;;;;;29.47;17.77;;;;;;;-4.30;100.00;100375.00;697468;28;1370;-65
2022/12/13 01:00:03;;;;;;;29.37;17.63;;;;;;;-4.34;100.00;100368.00;697386;28;1301;-64
2022/12/13 01:00:24;;;;;;;27.95;17.08;;;;;;;-4.31;100.00;100373.25;698500;28;1169;-65
2022/12/13 01:00:45;;;;;;;28.92;17.25;;;;;;;-4.33;100.00;100375.72;696075;28;4347;-65
2022/12/13 01:01:08;;;;;;;30.83;17.30;;;;;;;-4.40;100.00;100373.66;693883;28;2855;-65
2022/12/13 01:01:31;;;;;;;27.85;17.02;;;;;;;-4.42;100.00;100379.50;695661;28;1382;-65
2022/12/13 01:01:52;;;;;;;29.08;17.15;;;;;;;-4.42;100.00;100379.50;696285;28;1436;-66
2022/12/13 01:02:12;;;;;;;26.75;16.35;;;;;;;-4.32;100.00;100376.59;695268;28;1352;-64
2022/12/13 01:02:33;;;;;;;28.83;17.47;;;;;;;-4.28;100.00;100374.28;696223;28;1483;-65
2022/12/13 01:02:53;;;;;;;27.85;17.08;;;;;;;-4.35;100.00;100372.19;696261;28;1440;-66
2022/12/13 01:03:19;;;;;;;28.50;17.23;;;;;;;-4.38;100.00;100381.41;695200;28;1440;-66
2022/12/13 01:03:41;;;;;;;28.00;17.05;;;;;;;-4.43;100.00;100377.72;694496;28;4442;-66
2022/12/13 01:04:06;;;;;;;27.98;17.17;;;;;;;-4.50;100.00;100377.44;695484;28;3104;-66
2022/12/13 01:04:27;;;;;;;28.33;17.35;;;;;;;-4.54;100.00;100380.63;695433;28;1309;-65
2022/12/13 01:04:50;;;;;;;29.30;17.63;;;;;;;-4.60;100.00;100375.19;695697;28;1350;-66
2022/12/13 01:05:11;;;;;;;31.02;17.67;;;;;;;-4.64;100.00;100373.28;693680;28;1464;-65
2022/12/13 01:05:34;;;;;;;29.15;17.08;;;;;;;-4.63;100.00;100380.13;695828;28;1321;-64
2022/12/13 01:05:54;;;;;;;28.52;16.80;;;;;;;-4.50;100.00;100376.53;697262;28;1475;-64
2022/12/13 01:06:19;;;;;;;28.17;16.90;;;;;;;-4.37;100.00;100378.06;697553;28;1681;-66
2022/12/13 01:06:42;;;;;;;29.92;17.25;;;;;;;-4.32;100.00;100377.50;697275;28;4321;-66
2022/12/13 01:07:02;;;;;;;28.33;16.95;;;;;;;-4.33;100.00;100379.97;698097;28;1222;-65
2022/12/13 01:07:24;;;;;;;28.20;17.08;;;;;;;-4.41;100.00;100378.69;696760;28;1131;-66
2022/12/13 01:07:44;;;;;;;30.10;17.33;;;;;;;-4.45;100.00;100383.63;697557;28;1147;-67
2022/12/13 01:08:04;;;;;;;28.33;16.57;;;;;;;-4.48;100.00;100375.81;698460;28;1305;-66
2022/12/13 01:08:26;;;;;;;26.60;16.37;;;;;;;-4.48;100.00;100375.81;695200;28;1938;-64
2022/12/13 01:08:47;;;;;;;28.25;16.90;;;;;;;-4.38;100.00;100379.72;696103;28;1337;-64
2022/12/13 01:09:17;;;;;;;28.35;16.38;;;;;;;-4.32;100.00;100376.59;695167;28;2704;-65
2022/12/13 01:09:38;;;;;;;25.98;16.48;;;;;;;-4.31;100.00;100378.34;694696;28;4273;-65
2022/12/13 01:09:59;;;;;;;26.85;17.20;;;;;;;-4.36;100.00;100374.69;695183;28;1392;-66
2022/12/13 01:10:19;;;;;;;28.27;16.70;;;;;;;-4.42;100.00;100377.81;697165;28;1201;-66
2022/12/13 01:11:00;;;;;;;27.63;15.93;;;;;;;-4.42;100.00;100376.94;697805;28;1348;-66
2022/12/13 01:11:21;;;;;;;27.45;16.23;;;;;;;-4.44;100.00;100376.88;696065;28;1365;-65
2022/12/13 01:11:41;;;;;;;26.15;15.68;;;;;;;-4.46;100.00;100374.25;696144;28;2871;-65
2022/12/13 01:12:05;;;;;;;28.15;16.33;;;;;;;-4.50;100.00;100372.31;699909;28;1166;-66
2022/12/13 01:12:26;;;;;;;29.05;17.50;;;;;;;-4.54;100.00;100375.53;699297;28;1261;-67
2022/12/13 01:12:49;;;;;;;28.37;16.73;;;;;;;-4.50;100.00;100376.53;699179;28;4245;-66
2022/12/13 01:13:11;;;;;;;27.00;16.40;;;;;;;-4.46;100.00;100374.25;700911;28;1450;-66
2022/12/13 01:13:31;;;;;;;28.17;17.10;;;;;;;-4.45;100.00;100370.00;698920;28;1459;-66
2022/12/13 01:13:51;;;;;;;28.08;16.95;;;;;;;-4.40;100.00;100377.88;699562;28;1296;-66
2022/12/13 01:14:12;;;;;;;29.27;17.33;;;;;;;-4.51;100.00;100373.13;697328;28;1483;-66
2022/12/13 01:14:37;;;;;;;28.17;17.00;;;;;;;-4.62;100.00;100375.09;697076;28;2734;-65
2022/12/13 01:14:57;;;;;;;29.90;16.83;;;;;;;-4.64;100.00;100376.72;696296;28;1357;-65
2022/12/13 01:15:17;;;;;;;28.50;16.63;;;;;;;-4.59;100.00;100369.28;698666;28;1371;-66
2022/12/13 01:15:45;;;;;;;25.73;16.30;;;;;;;-4.52;100.00;100368.81;697729;28;4636;-66
2022/12/13 01:16:08;;;;;;;27.38;16.27;;;;;;;-4.56;100.00;100372.00;698085;28;1377;-65
2022/12/13 01:16:28;;;;;;;28.00;16.58;;;;;;;-4.53;100.00;100367.03;698637;28;3616;-64
2022/12/13 01:16:49;;;;;;;26.42;16.50;;;;;;;-4.45;100.00;100377.66;700349;28;1355;-66
2022/12/13 01:17:09;;;;;;;25.67;15.83;;;;;;;-4.40;100.00;100373.66;697752;28;2896;-64
2022/12/13 01:17:30;;;;;;;27.95;16.58;;;;;;;-4.34;100.00;100368.88;697743;28;1353;-65
2022/12/13 01:17:50;;;;;;;28.42;16.73;;;;;;;-4.29;100.00;100369.13;698206;28;1306;-62
2022/12/13 01:18:12;;;;;;;28.87;17.00;;;;;;;-4.27;100.00;100370.06;697256;28;1415;-65
2022/12/13 01:18:34;;;;;;;27.40;16.60;;;;;;;-4.29;100.00;100375.09;696815;28;1475;-65
2022/12/13 01:18:56;;;;;;;27.05;15.95;;;;;;;-4.39;100.00;100369.44;696840;28;4307;-64
2022/12/13 01:19:16;;;;;;;26.50;16.15;;;;;;;-4.47;100.00;100372.47;695125;28;1288;-64
2022/12/13 01:19:37;;;;;;;27.87;15.67;;;;;;;-4.53;100.00;100376.38;694807;28;1328;-66
2022/12/13 01:19:57;;;;;;;29.00;16.50;;;;;;;-4.53;100.00;100371.28;694233;28;2823;-65
2022/12/13 01:20:17;;;;;;;28.00;16.57;;;;;;;-4.52;100.00;100375.59;696509;28;1372;-65
2022/12/13 01:20:38;;;;;;;26.75;15.82;;;;;;;-4.49;100.00;100373.19;695072;28;1345;-66
2022/12/13 01:21:03;;;;;;;27.37;16.17;;;;;;;-4.47;100.00;100374.16;695494;28;1385;-65
2022/12/13 01:21:24;;;;;;;26.02;15.75;;;;;;;-4.43;100.00;100375.19;697548;28;1210;-65
2022/12/13 01:21:44;;;;;;;27.00;16.13;;;;;;;-4.46;100.00;100370.78;694785;28;4463;-66
2022/12/13 01:22:06;;;;;;;26.20;15.93;;;;;;;-4.52;100.00;100373.03;694587;28;1352;-65
2022/12/13 01:22:27;;;;;;;26.88;15.77;;;;;;;-4.58;100.00;100368.50;694746;28;2943;-65
2022/12/13 01:22:47;;;;;;;26.37;16.27;;;;;;;-4.61;100.00;100373.44;695674;28;1460;-66
2022/12/13 01:23:07;;;;;;;26.58;16.10;;;;;;;-4.63;100.00;100372.47;696103;28;1315;-66
2022/12/13 01:23:28;;;;;;;27.13;15.70;;;;;;;-4.64;100.00;100376.72;694882;28;1313;-65
2022/12/13 01:23:51;;;;;;;26.67;15.23;;;;;;;-4.66;100.00;100374.88;697097;28;1355;-65
2022/12/13 01:24:11;;;;;;;26.70;15.25;;;;;;;-4.68;100.00;100372.25;696653;28;1309;-67
2022/12/13 01:24:32;;;;;;;25.45;15.32;;;;;;;-4.64;100.00;100374.16;697692;28;1289;-65
2022/12/13 01:24:53;;;;;;;25.65;15.43;;;;;;;-4.48;100.00;100369.84;697422;28;4510;-66
2022/12/13 01:25:13;;;;;;;25.10;15.60;;;;;;;-4.36;100.00;100369.56;694703;28;2930;-66
2022/12/13 01:25:37;;;;;;;25.67;16.03;;;;;;;-4.37;100.00;100372.94;692138;28;1519;-65
2022/12/13 01:25:57;;;;;;;27.02;15.70;;;;;;;-4.43;100.00;100382.84;691593;28;1254;-66
2022/12/13 01:26:20;;;;;;;27.98;15.88;;;;;;;-4.45;100.00;100378.50;693287;28;1194;-66
2022/12/13 01:26:40;;;;;;;26.10;15.30;;;;;;;-4.43;100.00;100370.97;693060;28;1147;-66
2022/12/13 01:27:01;;;;;;;29.30;16.37;;;;;;;-4.44;100.00;100371.75;692916;28;1072;-66
2022/12/13 01:27:21;;;;;;;28.80;16.10;;;;;;;-4.45;100.00;100373.41;694831;28;1150;-65
2022/12/13 01:27:41;;;;;;;26.40;15.60;;;;;;;-4.42;100.00;100369.28;697037;28;4327;-66
2022/12/13 01:28:02;;;;;;;27.23;16.17;;;;;;;-4.41;100.00;100376.16;694336;28;1269;-66
2022/12/13 01:28:23;;;;;;;25.83;15.57;;;;;;;-4.36;100.00;100374.69;694329;28;1906;-66
2022/12/13 01:28:44;;;;;;;26.27;15.52;;;;;;;-4.33;100.00;100374.84;694991;28;1142;-66
2022/12/13 01:29:04;;;;;;;26.87;16.13;;;;;;;-4.35;100.00;100376.44;694135;28;1398;-64
2022/12/13 01:29:26;;;;;;;27.02;15.90;;;;;;;-4.40;100.00;100377.88;694444;28;1264;-66
2022/12/13 01:29:46;;;;;;;27.35;15.80;;;;;;;-4.43;100.00;100375.19;694982;28;1087;-66
2022/12/13 01:30:07;;;;;;;27.67;16.27;;;;;;;-4.42;100.00;100379.50;696803;28;1241;-63
2022/12/13 01:30:27;;;;;;;27.33;15.53;;;;;;;-4.43;100.00;100367.53;696780;28;2879;-65
2022/12/13 01:30:55;;;;;;;25.40;15.60;;;;;;;-4.39;100.00;100374.53;696591;28;4277;-66
2022/12/13 01:31:18;;;;;;;27.15;15.90;;;;;;;-4.49;100.00;100379.16;696269;28;1353;-64
2022/12/13 01:31:40;;;;;;;27.15;16.30;;;;;;;-4.52;100.00;100373.91;697056;28;1173;-67
2022/12/13 01:32:01;;;;;;;26.48;16.38;;;;;;;-4.45;100.00;100368.31;697155;28;1139;-66
2022/12/13 01:32:21;;;;;;;28.13;16.30;;;;;;;-4.46;100.00;100369.13;696443;28;1228;-66
2022/12/13 01:32:41;;;;;;;27.60;16.00;;;;;;;-4.46;100.00;100379.34;695973;28;1209;-65
2022/12/13 01:33:02;;;;;;;27.10;16.07;;;;;;;-4.46;100.00;100376.78;694614;28;2906;-65
2022/12/13 01:33:23;;;;;;;27.50;16.30;;;;;;;-4.44;100.00;100381.97;694790;28;1151;-64
2022/12/13 01:33:44;;;;;;;25.25;16.13;;;;;;;-4.44;100.00;100374.31;695986;28;4791;-66
2022/12/13 01:34:09;;;;;;;27.35;16.33;;;;;;;-4.45;100.00;100377.66;695907;28;1206;-64
2022/12/13 01:34:29;;;;;;;27.02;16.33;;;;;;;-4.42;100.00;100382.03;695014;28;1411;-64
2022/12/13 01:34:50;;;;;;;26.70;16.13;;;;;;;-4.48;100.00;100377.50;696256;28;1475;-66
2022/12/13 01:35:12;;;;;;;26.55;16.38;;;;;;;-4.55;100.00;100378.84;694838;28;1313;-62
2022/12/13 01:35:34;;;;;;;26.88;16.08;;;;;;;-4.59;100.00;100382.06;695047;28;1424;-66
2022/12/13 01:35:55;;;;;;;25.17;15.82;;;;;;;-4.63;100.00;100378.44;694342;28;2874;-64
2022/12/13 01:36:18;;;;;;;25.63;15.65;;;;;;;-4.64;100.00;100376.72;694554;28;1147;-66
2022/12/13 01:36:40;;;;;;;25.88;15.77;;;;;;;-4.61;100.00;100378.53;694400;28;4399;-64
2022/12/13 01:37:00;;;;;;;27.23;16.85;;;;;;;-4.62;100.00;100380.22;694978;28;1206;-66
2022/12/13 01:37:20;;;;;;;27.47;16.23;;;;;;;-4.59;100.00;100379.50;698166;28;1264;-66
2022/12/13 01:37:41;;;;;;;27.17;16.23;;;;;;;-4.55;100.00;100376.31;699979;28;1114;-65
2022/12/13 01:38:02;;;;;;;26.90;16.02;;;;;;;-4.50;100.00;100379.97;701071;28;1157;-66